Terminal Aerodrome Forecast
Issued by NWS

Home | Current Version | Previous Version | Text Only | Print | Product List | Glossary On
Versions: 1 2 3 4 5 6 7 8 9 10 11 12 13 14 15 16 17
744
FTUS43 KGRR 301253 AAA
TAFJXN
TAF AMD
KJXN 301253Z 3013/3112 05005KT 5SM -TSRA SCT006 BKN015CB
      TEMPO 3013/3014 2SM TSRA BKN006CB
     FM301600 07005KT P6SM OVC025
     FM301800 08004KT P6SM VCTS SCT035 BKN050CB
     FM310600 11002KT 4SM -SHRA OVC025
     FM310900 00000KT 2SM -SHRA BR OVC007=

USA.gov is the U.S. government's official web portal to all federal, state and local government web resources and services.